Time;durP1;ratioP1;P1;durP2;ratioP2;P2;SDS_P1;SDS_P2;PMS_P1;PMS_P2;Temp;Humidity;BMP_temperature;BMP_pressure;BME280_temperature;BME280_humidity;BME280_pressure;Samples;Min_cycle;Max_cycle;Signal;HPM_P1;HPM_P2
2022/10/18 00:00:36;;;;;;;107.32;18.23;;;13.60;99.90;;;;;;5012854;28;20060;-75
2022/10/18 00:03:01;;;;;;;70.00;15.88;;;13.50;99.90;;;;;;5009537;28;20034;-74
2022/10/18 00:05:27;;;;;;;67.38;16.05;;;13.50;99.90;;;;;;5020098;28;20068;-73
2022/10/18 00:07:53;;;;;;;57.65;15.27;;;13.50;99.90;;;;;;5020849;28;20121;-74
2022/10/18 00:10:18;;;;;;;57.38;15.13;;;13.50;99.90;;;;;;5028375;28;20406;-73
2022/10/18 00:12:48;;;;;;;37.17;13.07;;;13.40;99.90;;;;;;5033857;28;20367;-74
2022/10/18 00:15:14;;;;;;;49.83;13.88;;;13.40;99.90;;;;;;5030671;28;20053;-74
2022/10/18 00:17:39;;;;;;;51.17;13.23;;;13.50;99.90;;;;;;5021073;28;20057;-74
2022/10/18 00:20:06;;;;;;;60.95;14.18;;;13.40;99.90;;;;;;5031346;28;20092;-74
2022/10/18 00:22:34;;;;;;;53.67;13.68;;;13.40;99.90;;;;;;5015332;28;20155;-73
2022/10/18 00:25:00;;;;;;;57.97;13.85;;;13.40;99.90;;;;;;5033233;28;20155;-73
2022/10/18 00:27:28;;;;;;;53.45;12.80;;;13.40;99.90;;;;;;5015455;28;20144;-75
2022/10/18 00:29:54;;;;;;;40.67;12.70;;;13.40;99.90;;;;;;5033358;28;20501;-74
2022/10/18 00:32:22;;;;;;;88.45;13.95;;;13.40;99.90;;;;;;5033368;28;20046;-74
2022/10/18 00:34:47;;;;;;;106.70;16.55;;;13.40;99.90;;;;;;5033216;28;20061;-76
2022/10/18 00:37:13;;;;;;;109.97;17.42;;;13.30;99.90;;;;;;5033097;28;20042;-75
2022/10/18 00:39:41;;;;;;;76.78;15.63;;;13.40;99.90;;;;;;5033245;28;20047;-76
2022/10/18 00:42:16;;;;;;;77.47;14.57;;;13.30;99.90;;;;;;5015278;28;20088;-76
2022/10/18 00:44:42;;;;;;;63.58;13.60;;;13.20;99.90;;;;;;5020240;28;20062;-75
2022/10/18 00:47:10;;;;;;;74.57;13.20;;;13.30;99.90;;;;;;5030161;28;20048;-75
2022/10/18 00:49:38;;;;;;;69.35;14.68;;;13.40;99.90;;;;;;5014780;28;20473;-76
2022/10/18 00:52:19;;;;;;;66.20;13.63;;;13.40;99.90;;;;;;5032938;28;20074;-76
2022/10/18 00:54:47;;;;;;;65.38;13.88;;;13.40;99.90;;;;;;5032789;28;20053;-75
2022/10/18 00:57:13;;;;;;;62.88;12.77;;;13.40;99.90;;;;;;5032916;28;20111;-75
2022/10/18 00:59:40;;;;;;;52.58;12.57;;;13.30;99.90;;;;;;5015461;28;20045;-75
2022/10/18 01:02:06;;;;;;;59.22;13.35;;;13.30;99.90;;;;;;5032784;28;20493;-75
2022/10/18 01:04:33;;;;;;;74.40;14.65;;;13.30;99.90;;;;;;5011339;28;20447;-76
2022/10/18 01:07:06;;;;;;;94.20;15.65;;;13.30;99.90;;;;;;5025535;28;20053;-75
2022/10/18 01:09:45;;;;;;;53.90;14.23;;;13.30;99.90;;;;;;5032758;28;20049;-74
2022/10/18 01:12:39;;;;;;;60.70;14.45;;;13.30;99.90;;;;;;5033215;28;20136;-74
2022/10/18 01:15:15;;;;;;;44.53;13.05;;;13.30;99.90;;;;;;5023913;28;20099;-75
2022/10/18 01:18:05;;;;;;;56.45;14.00;;;13.30;99.90;;;;;;5030419;28;20034;-75
2022/10/18 01:20:52;;;;;;;61.38;12.85;;;13.30;99.90;;;;;;5013464;28;20054;-75
2022/10/18 01:23:40;;;;;;;74.90;15.52;;;13.30;99.90;;;;;;5021816;28;20037;-75
2022/10/18 01:26:15;;;;;;;63.08;14.95;;;13.40;99.90;;;;;;5013028;28;20050;-75
2022/10/18 01:29:16;;;;;;;85.63;16.00;;;13.40;99.90;;;;;;5031873;28;20056;-75
2022/10/18 01:31:50;;;;;;;56.72;14.77;;;13.50;99.90;;;;;;5023316;28;20057;-75
2022/10/18 01:34:18;;;;;;;56.42;14.15;;;13.30;99.90;;;;;;5032915;28;20053;-76
2022/10/18 01:36:48;;;;;;;58.60;14.05;;;13.40;99.90;;;;;;5027337;28;20065;-75
2022/10/18 01:39:21;;;;;;;59.22;16.42;;;13.40;99.90;;;;;;4995376;28;20498;-75
2022/10/18 01:41:49;;;;;;;65.60;15.13;;;13.40;99.90;;;;;;4979251;28;20057;-75
2022/10/18 01:44:19;;;;;;;63.90;16.25;;;13.40;99.90;;;;;;5022450;28;20068;-75
2022/10/18 01:46:46;;;;;;;73.15;16.45;;;13.40;99.90;;;;;;5027134;28;20077;-75
2022/10/18 01:49:11;;;;;;;50.92;14.68;;;13.30;99.90;;;;;;5005293;28;20111;-75
2022/10/18 01:51:37;;;;;;;58.08;15.25;;;13.30;99.90;;;;;;5008579;28;20049;-75
2022/10/18 01:54:03;;;;;;;59.60;13.77;;;13.30;99.90;;;;;;5014266;28;20053;-75
2022/10/18 01:56:57;;;;;;;70.30;15.48;;;13.40;99.90;;;;;;5031889;28;20403;-76
2022/10/18 02:00:00;;;;;;;50.47;13.30;;;13.30;99.90;;;;;;5014490;28;20041;-75
2022/10/18 02:02:46;;;;;;;48.25;14.05;;;13.30;99.90;;;;;;5031626;28;20401;-75
2022/10/18 02:05:46;;;;;;;50.53;13.95;;;13.30;99.90;;;;;;5010313;28;20483;-76
2022/10/18 02:08:14;;;;;;;53.20;14.68;;;13.20;99.90;;;;;;5012043;28;20064;-74
2022/10/18 02:10:51;;;;;;;59.42;14.93;;;13.20;99.90;;;;;;5012429;28;20068;-74
2022/10/18 02:13:20;;;;;;;52.72;14.90;;;13.20;99.90;;;;;;5030130;28;20056;-75
2022/10/18 02:15:49;;;;;;;44.17;13.93;;;13.10;99.90;;;;;;5013297;28;20049;-75
2022/10/18 02:18:21;;;;;;;50.63;14.25;;;13.10;99.90;;;;;;5021647;28;20479;-75
2022/10/18 02:20:47;;;;;;;72.40;15.50;;;13.10;99.90;;;;;;4993662;28;20769;-74
2022/10/18 02:23:15;;;;;;;63.00;14.63;;;13.10;99.90;;;;;;5028221;28;20107;-75
2022/10/18 02:25:40;;;;;;;62.97;12.52;;;13.10;99.90;;;;;;5030831;28;20490;-75
2022/10/18 02:28:06;;;;;;;89.22;15.63;;;13.00;99.90;;;;;;5031768;28;20071;-75
2022/10/18 02:31:20;;;;;;;75.25;14.57;;;13.00;99.90;;;;;;5020512;28;20078;-75
2022/10/18 02:34:03;;;;;;;87.63;15.38;;;13.00;99.90;;;;;;4969039;28;20132;-75
2022/10/18 02:36:45;;;;;;;89.93;15.23;;;12.90;99.90;;;;;;5031197;28;20100;-75
2022/10/18 02:39:21;;;;;;;80.10;14.75;;;12.90;99.90;;;;;;5031076;28;20128;-75
2022/10/18 02:41:47;;;;;;;78.55;14.05;;;12.90;99.90;;;;;;5025327;28;20052;-75
2022/10/18 02:44:13;;;;;;;71.88;14.05;;;12.90;99.90;;;;;;5030936;28;20053;-75
2022/10/18 02:46:39;;;;;;;55.05;12.82;;;12.80;99.90;;;;;;5020335;28;20120;-74
2022/10/18 02:49:05;;;;;;;67.80;12.40;;;12.80;99.90;;;;;;5030750;28;20177;-75
2022/10/18 02:51:30;;;;;;;56.05;12.32;;;12.80;99.90;;;;;;5030697;28;20037;-75
2022/10/18 02:53:56;;;;;;;39.00;10.85;;;12.80;99.90;;;;;;5031530;28;20446;-75
2022/10/18 02:56:22;;;;;;;43.22;11.23;;;12.80;99.90;;;;;;5031264;28;20124;-75
2022/10/18 02:58:47;;;;;;;48.90;11.18;;;12.80;99.90;;;;;;5013312;28;20136;-75
2022/10/18 03:01:13;;;;;;;39.15;11.55;;;12.80;99.90;;;;;;5030896;28;20080;-75
2022/10/18 03:03:39;;;;;;;38.40;10.77;;;12.80;99.90;;;;;;5031125;28;20052;-74
2022/10/18 03:06:07;;;;;;;44.80;11.50;;;12.80;99.90;;;;;;5030858;28;20060;-74
2022/10/18 03:08:32;;;;;;;64.68;13.55;;;12.80;99.90;;;;;;5030801;28;20049;-75
2022/10/18 03:10:58;;;;;;;53.70;12.63;;;12.70;99.90;;;;;;5030966;28;20060;-74
2022/10/18 03:13:24;;;;;;;43.40;11.55;;;12.80;99.90;;;;;;5030832;28;20430;-75
2022/10/18 03:15:49;;;;;;;48.13;11.95;;;12.80;99.90;;;;;;5015896;28;20045;-75
2022/10/18 03:18:17;;;;;;;45.05;11.02;;;12.70;99.90;;;;;;5020608;28;20045;-75
2022/10/18 03:20:43;;;;;;;39.38;11.18;;;12.70;99.90;;;;;;5030299;28;20058;-74
2022/10/18 03:23:09;;;;;;;37.20;11.10;;;12.70;99.90;;;;;;5030752;28;20076;-75
2022/10/18 03:25:34;;;;;;;38.60;11.45;;;12.70;99.90;;;;;;5025197;28;20041;-75
2022/10/18 03:28:00;;;;;;;30.17;11.68;;;12.70;99.90;;;;;;5010739;28;20050;-75
2022/10/18 03:30:26;;;;;;;29.02;10.70;;;12.60;99.90;;;;;;4996888;28;20049;-74
2022/10/18 03:32:53;;;;;;;39.78;12.38;;;12.60;99.90;;;;;;5018079;28;20048;-74
2022/10/18 03:35:18;;;;;;;29.77;11.65;;;12.60;99.90;;;;;;5006675;28;20096;-75
2022/10/18 03:37:44;;;;;;;38.65;13.20;;;12.60;99.90;;;;;;5013059;28;20049;-75
2022/10/18 03:40:10;;;;;;;38.95;12.18;;;12.60;99.90;;;;;;5004505;28;20050;-75
2022/10/18 03:42:36;;;;;;;33.42;11.15;;;12.60;99.90;;;;;;5016945;28;20570;-77
2022/10/18 03:45:01;;;;;;;36.42;11.27;;;12.50;99.90;;;;;;5012781;28;20530;-75
2022/10/18 03:47:27;;;;;;;49.45;12.88;;;12.50;99.90;;;;;;5026832;28;20049;-74
2022/10/18 03:49:52;;;;;;;52.53;12.13;;;12.50;99.90;;;;;;5027553;28;20085;-75
2022/10/18 03:52:18;;;;;;;48.00;12.25;;;12.50;99.90;;;;;;5024661;28;20056;-75
2022/10/18 03:54:44;;;;;;;42.95;11.43;;;12.50;99.90;;;;;;5034391;28;20053;-75
2022/10/18 03:57:09;;;;;;;34.58;11.25;;;12.40;99.90;;;;;;5033359;28;20049;-75
2022/10/18 03:59:35;;;;;;;49.60;11.05;;;12.40;99.90;;;;;;5017141;28;20107;-75
2022/10/18 04:02:01;;;;;;;43.47;10.93;;;12.40;99.90;;;;;;5026337;28;20132;-75
2022/10/18 04:04:26;;;;;;;34.22;9.63;;;12.30;99.90;;;;;;5012003;28;20045;-75
2022/10/18 04:06:52;;;;;;;36.22;9.57;;;12.60;99.90;;;;;;5034063;28;20052;-75
2022/10/18 04:09:18;;;;;;;31.90;9.88;;;12.30;99.90;;;;;;5034050;28;20049;-76
2022/10/18 04:11:43;;;;;;;39.13;11.00;;;12.20;99.90;;;;;;5034349;28;20258;-76
2022/10/18 04:14:09;;;;;;;35.70;10.05;;;12.30;99.90;;;;;;5011296;28;20037;-75
2022/10/18 04:16:35;;;;;;;44.88;10.93;;;12.20;99.90;;;;;;5033888;28;20505;-76
2022/10/18 04:19:00;;;;;;;50.83;11.18;;;12.20;99.90;;;;;;5015970;28;20057;-76
2022/10/18 04:21:26;;;;;;;41.15;11.15;;;12.20;99.90;;;;;;5033377;28;20064;-75
2022/10/18 04:23:52;;;;;;;46.97;12.10;;;12.10;99.90;;;;;;5016139;28;20046;-75
2022/10/18 04:26:18;;;;;;;46.17;11.25;;;12.20;99.90;;;;;;5007630;28;20050;-74
2022/10/18 04:28:43;;;;;;;48.00;11.27;;;12.20;99.90;;;;;;4993436;28;20054;-75
2022/10/18 04:31:12;;;;;;;36.80;11.15;;;12.20;99.90;;;;;;5011116;28;20196;-75
2022/10/18 04:33:38;;;;;;;38.70;10.60;;;12.20;99.90;;;;;;5020455;28;20505;-74
2022/10/18 04:36:04;;;;;;;39.95;9.95;;;12.20;99.90;;;;;;5004931;28;20042;-75
2022/10/18 04:38:29;;;;;;;39.00;10.52;;;12.30;99.90;;;;;;5033409;28;20049;-75
2022/10/18 04:40:58;;;;;;;45.33;11.32;;;12.30;99.90;;;;;;5033588;28;20726;-75
2022/10/18 04:43:24;;;;;;;36.67;10.35;;;12.30;99.90;;;;;;5024744;28;20045;-75
2022/10/18 04:45:50;;;;;;;42.75;11.27;;;12.20;99.90;;;;;;5033424;28;20057;-77
2022/10/18 04:48:16;;;;;;;49.90;11.50;;;12.20;99.90;;;;;;5018871;28;20124;-76
2022/10/18 04:50:42;;;;;;;41.25;10.30;;;12.20;99.90;;;;;;5033595;28;20049;-76
2022/10/18 04:53:08;;;;;;;37.33;10.73;;;12.20;99.90;;;;;;5032431;28;20115;-76
2022/10/18 04:55:34;;;;;;;57.67;11.13;;;12.20;99.90;;;;;;5033048;28;20474;-76
2022/10/18 04:57:59;;;;;;;34.65;10.18;;;12.20;99.90;;;;;;5033331;28;20083;-75
2022/10/18 05:00:25;;;;;;;42.63;11.38;;;12.30;99.90;;;;;;5008221;28;20100;-76
2022/10/18 05:02:57;;;;;;;34.58;11.25;;;12.20;99.90;;;;;;5033054;28;20045;-76
2022/10/18 05:05:22;;;;;;;38.05;10.90;;;12.30;99.90;;;;;;5033060;28;20107;-75
2022/10/18 05:07:48;;;;;;;39.25;11.00;;;12.20;99.90;;;;;;5033352;28;20489;-76
2022/10/18 05:10:14;;;;;;;32.90;9.50;;;12.20;99.90;;;;;;5019609;28;20058;-76
2022/10/18 05:12:40;;;;;;;41.72;10.45;;;12.20;99.90;;;;;;5014990;28;20120;-76
2022/10/18 05:15:05;;;;;;;51.63;11.73;;;12.20;99.90;;;;;;5030049;28;20398;-77
2022/10/18 05:17:31;;;;;;;52.63;11.02;;;12.20;99.90;;;;;;5032567;28;20052;-76
2022/10/18 05:19:57;;;;;;;32.55;9.85;;;12.20;99.90;;;;;;5030559;28;20573;-77
2022/10/18 05:22:22;;;;;;;23.67;9.10;;;12.20;99.90;;;;;;5022786;28;20045;-77
2022/10/18 05:24:48;;;;;;;28.70;9.43;;;12.10;99.90;;;;;;5002101;28;20486;-77
2022/10/18 05:27:14;;;;;;;29.80;9.82;;;12.10;99.90;;;;;;5001931;28;20041;-76
2022/10/18 05:29:39;;;;;;;37.42;10.85;;;12.10;99.90;;;;;;5032711;28;20072;-76
2022/10/18 05:32:05;;;;;;;26.30;9.65;;;12.10;99.90;;;;;;5015093;28;20045;-76
2022/10/18 05:34:31;;;;;;;23.23;8.30;;;12.10;99.90;;;;;;5032264;28;20049;-75
2022/10/18 05:36:57;;;;;;;47.13;12.25;;;12.10;99.90;;;;;;5010316;28;20413;-76
2022/10/18 05:39:23;;;;;;;34.70;8.98;;;12.10;99.90;;;;;;5031460;28;20164;-75
2022/10/18 05:41:48;;;;;;;43.95;10.05;;;12.10;99.90;;;;;;5025976;28;20140;-76
2022/10/18 05:44:14;;;;;;;27.80;8.80;;;12.10;99.90;;;;;;5032297;28;20049;-75
2022/10/18 05:46:42;;;;;;;18.58;7.93;;;12.00;99.90;;;;;;5031555;28;20517;-74
2022/10/18 05:49:11;;;;;;;26.50;8.43;;;12.00;99.90;;;;;;5032109;28;20064;-76
2022/10/18 05:51:37;;;;;;;21.70;8.25;;;11.90;99.90;;;;;;5031459;28;20099;-75
2022/10/18 05:54:03;;;;;;;30.25;8.45;;;11.90;99.90;;;;;;5014289;28;20042;-76
2022/10/18 05:56:29;;;;;;;28.50;8.65;;;11.90;99.90;;;;;;5026594;28;20062;-76
2022/10/18 05:58:54;;;;;;;36.35;9.63;;;11.90;99.90;;;;;;5032054;28;20072;-76
2022/10/18 06:01:20;;;;;;;29.70;9.05;;;11.80;99.90;;;;;;5014458;28;20111;-76
2022/10/18 06:03:47;;;;;;;30.05;8.20;;;11.80;99.90;;;;;;5005544;28;20069;-76
2022/10/18 06:06:13;;;;;;;34.08;10.00;;;11.80;99.90;;;;;;5029350;28;20044;-76
2022/10/18 06:08:40;;;;;;;30.83;8.75;;;11.80;99.90;;;;;;5031977;28;20112;-76
2022/10/18 06:11:11;;;;;;;25.73;8.00;;;11.80;99.90;;;;;;5023034;28;20050;-76
2022/10/18 06:13:45;;;;;;;27.48;8.18;;;11.80;99.90;;;;;;5030741;28;20052;-75
2022/10/18 06:16:12;;;;;;;31.20;8.65;;;11.80;99.90;;;;;;5024473;28;20140;-65
2022/10/18 06:18:38;;;;;;;36.33;8.18;;;11.70;99.90;;;;;;5028363;28;20045;-64
2022/10/18 06:21:05;;;;;;;48.05;10.02;;;11.70;99.90;;;;;;5019715;28;20372;-65
2022/10/18 06:23:31;;;;;;;50.58;9.48;;;11.70;99.90;;;;;;5027046;28;20125;-65
2022/10/18 06:26:01;;;;;;;35.53;7.47;;;11.70;99.90;;;;;;4993632;28;20530;-65
2022/10/18 06:28:27;;;;;;;36.85;8.40;;;11.70;99.90;;;;;;5022952;28;20136;-64
2022/10/18 06:30:53;;;;;;;49.80;9.73;;;11.70;99.90;;;;;;5013077;28;20107;-65
2022/10/18 06:33:19;;;;;;;31.15;7.85;;;11.70;99.90;;;;;;5031235;28;20057;-65
2022/10/18 06:35:57;;;;;;;33.92;7.38;;;11.60;99.90;;;;;;5031267;28;20076;-65
2022/10/18 06:38:25;;;;;;;16.27;6.93;;;11.60;99.90;;;;;;5031430;28;20068;-65
2022/10/18 06:40:50;;;;;;;33.75;7.68;;;11.60;99.90;;;;;;5031405;28;20053;-64
2022/10/18 06:43:16;;;;;;;30.95;7.63;;;11.50;99.90;;;;;;5030778;28;20053;-65
2022/10/18 06:45:42;;;;;;;27.13;7.80;;;11.50;99.90;;;;;;5018697;28;20469;-65
2022/10/18 06:48:07;;;;;;;27.77;7.60;;;11.50;99.90;;;;;;5031026;28;20045;-65
2022/10/18 06:50:33;;;;;;;29.17;7.75;;;11.50;99.90;;;;;;5016709;28;20073;-65
2022/10/18 06:53:00;;;;;;;34.03;8.50;;;11.50;99.90;;;;;;5017325;28;20041;-64
2022/10/18 06:55:25;;;;;;;28.65;6.68;;;11.50;99.90;;;;;;4997572;28;20506;-65
2022/10/18 06:57:52;;;;;;;30.67;6.68;;;11.50;99.90;;;;;;5023174;28;20053;-65
2022/10/18 07:00:18;;;;;;;61.05;8.90;;;11.50;99.90;;;;;;5005080;28;20581;-65
2022/10/18 07:02:43;;;;;;;30.15;6.25;;;11.50;99.90;;;;;;5013427;28;20153;-65
2022/10/18 07:05:10;;;;;;;21.77;6.32;;;11.50;99.90;;;;;;5012811;28;20045;-65
2022/10/18 07:07:36;;;;;;;39.80;7.22;;;11.40;99.90;;;;;;5023188;28;20046;-65
2022/10/18 07:10:03;;;;;;;26.98;6.05;;;11.50;99.90;;;;;;5012464;28;20103;-65
2022/10/18 07:12:30;;;;;;;12.18;5.40;;;11.50;99.90;;;;;;5029263;28;20049;-65
2022/10/18 07:14:55;;;;;;;15.43;5.57;;;11.50;99.90;;;;;;5011913;28;20100;-65
2022/10/18 07:17:21;;;;;;;9.50;5.30;;;11.50;99.90;;;;;;5020384;28;20046;-65
2022/10/18 07:19:47;;;;;;;8.73;5.45;;;11.60;99.90;;;;;;5028067;28;20069;-66
2022/10/18 07:22:12;;;;;;;11.38;5.25;;;11.60;99.90;;;;;;5029481;28;20056;-65
2022/10/18 07:24:38;;;;;;;9.93;5.50;;;11.60;99.90;;;;;;5030766;28;20072;-65
2022/10/18 07:27:04;;;;;;;9.25;5.50;;;11.60;99.90;;;;;;5030253;28;20046;-65
2022/10/18 07:29:30;;;;;;;9.18;5.05;;;11.60;99.90;;;;;;5025766;28;20370;-66
2022/10/18 07:31:56;;;;;;;8.75;5.05;;;11.60;99.90;;;;;;5019208;28;20618;-66
2022/10/18 07:34:22;;;;;;;8.00;4.95;;;11.60;99.90;;;;;;5030114;28;20041;-66
2022/10/18 07:36:48;;;;;;;6.50;5.00;;;11.60;99.90;;;;;;5030242;28;20494;-66
2022/10/18 07:39:14;;;;;;;7.55;5.18;;;11.60;99.90;;;;;;5030513;28;20042;-65
2022/10/18 07:41:39;;;;;;;7.68;5.20;;;11.70;99.90;;;;;;5018388;28;20104;-66
2022/10/18 07:44:05;;;;;;;8.05;5.05;;;11.70;99.90;;;;;;5014976;28;20042;-65
2022/10/18 07:46:31;;;;;;;9.18;5.40;;;11.80;99.90;;;;;;5020787;28;20068;-65
2022/10/18 07:48:59;;;;;;;9.30;5.45;;;11.80;99.90;;;;;;5030012;28;20049;-65
2022/10/18 07:51:26;;;;;;;8.52;5.05;;;11.80;99.90;;;;;;5012559;28;20093;-65
2022/10/18 07:53:52;;;;;;;8.75;5.70;;;11.80;99.90;;;;;;5015715;28;20053;-66
2022/10/18 07:56:19;;;;;;;8.00;5.18;;;11.80;99.90;;;;;;5029882;28;20273;-65
2022/10/18 07:58:53;;;;;;;9.52;4.72;;;11.80;99.90;;;;;;5029084;28;20261;-64
2022/10/18 08:01:20;;;;;;;7.70;5.63;;;11.80;99.90;;;;;;4999345;28;20137;-65
2022/10/18 08:03:46;;;;;;;7.03;4.97;;;11.80;99.90;;;;;;5029755;28;20046;-65
2022/10/18 08:06:15;;;;;;;7.40;5.18;;;11.90;99.90;;;;;;5030335;28;20053;-66
2022/10/18 08:08:41;;;;;;;7.45;5.18;;;11.90;99.90;;;;;;5029878;28;20049;-66
2022/10/18 08:11:18;;;;;;;8.10;5.00;;;12.00;99.90;;;;;;5029685;28;20501;-64
2022/10/18 08:13:44;;;;;;;9.45;5.53;;;12.10;99.90;;;;;;5018399;28;20387;-65
2022/10/18 08:16:13;;;;;;;7.47;5.10;;;12.20;99.90;;;;;;5029818;28;20060;-64
2022/10/18 08:18:39;;;;;;;7.30;4.65;;;12.30;99.90;;;;;;5017746;28;20530;-65
2022/10/18 08:21:07;;;;;;;8.52;4.68;;;12.30;99.90;;;;;;5023637;28;20506;-66
2022/10/18 08:23:33;;;;;;;7.45;4.82;;;12.40;99.90;;;;;;5029766;28;20124;-65
2022/10/18 08:26:11;;;;;;;6.05;4.78;;;12.50;99.90;;;;;;5033264;28;20405;-65
2022/10/18 08:28:38;;;;;;;9.02;4.50;;;12.60;99.90;;;;;;5019310;28;20037;-65
2022/10/18 08:31:10;;;;;;;13.63;5.10;;;12.60;99.90;;;;;;5032983;28;20049;-64
2022/10/18 08:33:37;;;;;;;13.93;4.72;;;12.60;99.90;;;;;;5033140;28;20179;-65
2022/10/18 08:36:07;;;;;;;16.75;4.72;;;12.60;99.90;;;;;;5031106;28;20076;-65
2022/10/18 08:38:36;;;;;;;7.00;3.90;;;12.50;99.90;;;;;;5030494;28;20055;-65
2022/10/18 08:41:33;;;;;;;11.93;3.80;;;12.40;99.90;;;;;;5025781;28;20454;-65
2022/10/18 08:44:05;;;;;;;5.75;4.20;;;12.40;99.90;;;;;;5013433;28;20046;-65
2022/10/18 08:46:33;;;;;;;6.53;3.90;;;12.40;99.90;;;;;;5032262;28;20452;-65
2022/10/18 08:49:01;;;;;;;5.18;4.15;;;12.50;99.90;;;;;;5032782;28;20085;-65
2022/10/18 08:51:38;;;;;;;6.68;3.70;;;12.40;99.90;;;;;;5032474;28;20115;-65
2022/10/18 08:54:11;;;;;;;8.70;4.82;;;12.40;99.90;;;;;;5032795;28;20042;-64
2022/10/18 08:56:39;;;;;;;5.55;4.32;;;12.40;99.90;;;;;;5023008;28;20053;-65
2022/10/18 08:59:12;;;;;;;7.65;4.85;;;12.40;99.90;;;;;;5017919;28;20042;-67
2022/10/18 09:02:12;;;;;;;7.32;4.15;;;12.40;99.90;;;;;;5008057;28;20045;-67
2022/10/18 09:05:17;;;;;;;7.00;4.88;;;12.50;99.90;;;;;;5027964;28;20490;-67
2022/10/18 09:08:00;;;;;;;9.25;5.82;;;12.60;99.90;;;;;;5031465;28;20087;-67
2022/10/18 09:10:54;;;;;;;5.43;4.18;;;12.70;99.90;;;;;;5029490;28;20100;-65
2022/10/18 09:13:51;;;;;;;6.95;4.60;;;12.80;99.90;;;;;;5002070;28;20062;-65
2022/10/18 09:16:27;;;;;;;6.95;5.20;;;12.80;99.90;;;;;;4995209;28;20054;-65
2022/10/18 09:18:58;;;;;;;7.00;4.85;;;12.80;99.90;;;;;;5013234;28;20046;-66
2022/10/18 09:21:53;;;;;;;7.20;4.55;;;12.90;99.90;;;;;;4994291;28;20538;-66
2022/10/18 09:24:48;;;;;;;8.95;4.88;;;12.90;99.90;;;;;;5012669;28;20197;-66
2022/10/18 09:27:16;;;;;;;7.88;4.30;;;13.10;99.90;;;;;;4994077;28;20060;-66
2022/10/18 09:29:51;;;;;;;6.63;4.75;;;13.10;99.90;;;;;;5011925;28;20061;-64
2022/10/18 09:32:27;;;;;;;6.68;4.70;;;13.10;99.90;;;;;;5012254;28;20538;-65
2022/10/18 09:35:01;;;;;;;7.95;4.75;;;13.30;99.90;;;;;;5012269;28;20128;-65
2022/10/18 09:37:31;;;;;;;7.22;4.10;;;13.40;99.90;;;;;;5012076;28;20053;-65
2022/10/18 09:40:22;;;;;;;7.60;4.30;;;13.50;99.90;;;;;;5012032;28;20448;-65
2022/10/18 09:43:00;;;;;;;6.68;3.60;;;13.80;99.90;;;;;;5011478;28;20061;-66
2022/10/18 09:45:38;;;;;;;6.05;3.45;;;14.10;99.90;;;;;;5011230;28;20050;-65
2022/10/18 09:48:16;;;;;;;5.45;3.20;;;14.60;99.90;;;;;;5011731;28;20041;-65
2022/10/18 09:50:47;;;;;;;5.20;2.92;;;15.00;99.90;;;;;;5011672;28;20089;-65
2022/10/18 09:53:43;;;;;;;6.32;2.60;;;15.40;99.90;;;;;;5010649;28;20046;-65
2022/10/18 09:56:21;;;;;;;5.55;2.90;;;15.70;99.90;;;;;;5012412;28;20053;-65
2022/10/18 09:58:50;;;;;;;6.03;3.28;;;15.70;99.90;;;;;;4994597;28;20084;-65
2022/10/18 10:01:26;;;;;;;5.05;2.63;;;15.60;99.90;;;;;;5011789;28;20114;-65
2022/10/18 10:03:52;;;;;;;3.72;2.45;;;15.50;99.90;;;;;;4991197;28;20395;-65
2022/10/18 10:06:29;;;;;;;5.03;2.50;;;15.50;99.90;;;;;;4991850;28;20053;-65
2022/10/18 10:09:00;;;;;;;4.97;2.50;;;15.40;99.90;;;;;;4992669;28;20057;-65
2022/10/18 10:11:57;;;;;;;5.93;2.67;;;15.30;99.90;;;;;;4990901;28;20147;-66
2022/10/18 10:14:26;;;;;;;6.03;2.88;;;15.20;99.90;;;;;;4996773;28;20140;-63
2022/10/18 10:17:02;;;;;;;4.05;2.30;;;15.20;99.90;;;;;;5011804;28;20052;-63
2022/10/18 10:19:38;;;;;;;4.90;2.38;;;15.20;99.90;;;;;;5011582;28;20514;-63
2022/10/18 10:22:11;;;;;;;7.05;2.60;;;15.20;99.90;;;;;;5011102;28;20061;-63
2022/10/18 10:24:48;;;;;;;4.82;2.78;;;15.10;99.90;;;;;;5011667;28;20081;-63
2022/10/18 10:27:33;;;;;;;4.90;2.70;;;15.10;99.90;;;;;;5011818;28;20088;-64
2022/10/18 10:30:01;;;;;;;5.13;2.53;;;15.20;99.90;;;;;;4994243;28;20442;-64
2022/10/18 10:32:43;;;;;;;6.47;2.75;;;15.20;99.90;;;;;;5011600;28;20691;-63
2022/10/18 10:35:26;;;;;;;4.95;3.08;;;15.30;99.90;;;;;;5011411;28;20490;-64
2022/10/18 10:37:53;;;;;;;5.80;2.83;;;15.30;99.90;;;;;;5011594;28;20049;-63
2022/10/18 10:40:24;;;;;;;4.28;2.47;;;15.30;99.90;;;;;;5011714;28;20061;-63
2022/10/18 10:42:54;;;;;;;5.90;2.45;;;15.30;99.90;;;;;;5011209;28;20087;-63
2022/10/18 10:45:22;;;;;;;5.82;2.25;;;15.40;99.90;;;;;;5011195;28;20054;-63
2022/10/18 10:47:50;;;;;;;4.80;2.13;;;15.40;99.90;;;;;;5010893;28;20486;-63
2022/10/18 10:50:24;;;;;;;5.47;2.05;;;15.40;99.90;;;;;;5011488;28;20081;-63
2022/10/18 10:52:50;;;;;;;6.35;2.50;;;15.30;99.90;;;;;;5011191;28;20045;-64
2022/10/18 10:55:19;;;;;;;4.75;2.10;;;15.30;99.90;;;;;;5011247;28;20499;-64
2022/10/18 10:57:48;;;;;;;5.28;2.00;;;15.30;99.90;;;;;;5011156;28;20049;-64
2022/10/18 11:00:32;;;;;;;6.32;2.15;;;15.30;99.90;;;;;;4993791;28;20474;-64
2022/10/18 11:03:14;;;;;;;6.03;2.15;;;15.40;99.90;;;;;;5015958;28;20116;-64
2022/10/18 11:05:49;;;;;;;4.95;2.13;;;15.70;99.90;;;;;;5030964;28;20045;-64
2022/10/18 11:08:22;;;;;;;4.22;1.67;;;15.80;99.90;;;;;;5031192;28;20159;-64
2022/10/18 11:10:58;;;;;;;6.72;1.80;;;15.70;99.90;;;;;;5011813;28;20089;-65
2022/10/18 11:13:24;;;;;;;;;;;15.80;99.90;;;;;;5029430;28;20057;-65
2022/10/18 11:15:56;;;;;;;4.00;1.57;;;15.80;99.90;;;;;;5011009;28;19922;-65
2022/10/18 11:18:31;;;;;;;4.68;1.58;;;15.80;99.90;;;;;;5010929;28;20391;-64
2022/10/18 11:21:01;;;;;;;3.67;1.42;;;15.80;99.90;;;;;;5010838;28;20156;-63
2022/10/18 11:23:31;;;;;;;3.63;1.30;;;15.80;99.90;;;;;;5009788;28;20046;-63
2022/10/18 11:26:11;;;;;;;5.82;1.70;;;15.70;99.90;;;;;;5009459;28;20129;-63
2022/10/18 11:29:02;;;;;;;5.00;1.40;;;15.60;99.90;;;;;;5009503;28;20045;-64
2022/10/18 11:31:43;;;;;;;3.67;1.15;;;15.60;99.90;;;;;;5007512;28;20132;-68
2022/10/18 11:34:35;;;;;;;4.95;1.25;;;15.60;99.90;;;;;;5008186;28;20383;-67
2022/10/18 11:37:39;;;;;;;3.50;1.10;;;15.50;99.90;;;;;;4991185;28;20093;-67
2022/10/18 11:40:35;;;;;;;3.25;1.05;;;15.50;99.90;;;;;;4968528;28;20282;-65
2022/10/18 11:43:27;;;;;;;2.30;0.90;;;15.30;99.90;;;;;;4990714;28;20070;-66
2022/10/18 11:46:31;;;;;;;3.83;1.27;;;15.30;99.90;;;;;;4990948;28;20046;-63
2022/10/18 11:49:23;;;;;;;3.95;0.95;;;15.20;99.90;;;;;;4990690;28;20454;-64
2022/10/18 11:51:58;;;;;;;4.15;1.20;;;15.30;99.90;;;;;;4990583;28;20094;-63
2022/10/18 11:54:45;;;;;;;5.57;1.33;;;15.30;99.90;;;;;;4990770;28;20086;-64
2022/10/18 11:57:33;;;;;;;4.32;1.10;;;15.30;99.90;;;;;;4990742;28;20061;-65
2022/10/18 12:00:17;;;;;;;3.95;0.90;;;15.40;99.90;;;;;;4966710;28;20752;-65
2022/10/18 12:03:10;;;;;;;3.45;1.00;;;15.30;99.90;;;;;;4998876;28;20522;-63
2022/10/18 12:05:38;;;;;;;3.13;1.17;;;15.20;99.90;;;;;;5018455;28;20054;-64
2022/10/18 12:08:19;;;;;;;2.72;0.95;;;15.30;99.90;;;;;;5013300;28;20045;-65
2022/10/18 12:10:57;;;;;;;3.95;0.90;;;15.30;99.90;;;;;;5011358;28;20057;-65
2022/10/18 12:13:36;;;;;;;3.58;1.13;;;15.30;99.90;;;;;;5013983;28;20092;-64
2022/10/18 12:16:04;;;;;;;6.38;2.35;;;15.30;99.90;;;;;;4992281;28;20054;-65
2022/10/18 12:18:30;;;;;;;3.15;0.90;;;15.40;99.90;;;;;;4993388;28;20491;-64
2022/10/18 12:20:58;;;;;;;3.50;1.13;;;15.50;99.90;;;;;;4994230;28;20088;-65
2022/10/18 12:23:43;;;;;;;3.47;1.10;;;15.50;99.90;;;;;;4993581;28;20137;-65
2022/10/18 12:26:10;;;;;;;5.03;1.20;;;15.50;99.90;;;;;;4994366;28;20038;-65
2022/10/18 12:28:41;;;;;;;4.82;1.33;;;15.60;99.90;;;;;;4976897;28;20553;-68
2022/10/18 12:31:29;;;;;;;4.22;0.98;;;15.60;99.90;;;;;;4994128;28;20050;-65
2022/10/18 12:34:13;;;;;;;6.35;1.52;;;15.60;99.90;;;;;;4993556;28;20047;-67
2022/10/18 12:37:23;;;;;;;2.95;1.30;;;15.60;99.90;;;;;;4994322;28;20089;-65
2022/10/18 12:40:01;;;;;;;2.72;1.00;;;15.70;99.90;;;;;;5010135;28;20053;-65
2022/10/18 12:42:29;;;;;;;4.22;0.80;;;15.70;99.90;;;;;;5012419;28;20060;-68
2022/10/18 12:45:04;;;;;;;5.18;1.20;;;15.80;99.90;;;;;;5012535;28;20046;-65
2022/10/18 12:47:30;;;;;;;5.05;1.15;;;15.80;99.90;;;;;;5012352;28;20042;-65
2022/10/18 12:49:59;;;;;;;4.25;1.15;;;15.90;99.90;;;;;;5011496;28;20050;-65
2022/10/18 12:52:27;;;;;;;3.92;0.85;;;15.90;99.90;;;;;;5011330;28;20462;-66
2022/10/18 12:55:26;;;;;;;5.35;1.25;;;16.00;99.90;;;;;;5011666;28;20390;-68
2022/10/18 12:57:52;;;;;;;5.28;1.30;;;15.90;99.90;;;;;;5012674;28;20042;-67
2022/10/18 13:00:29;;;;;;;3.15;1.20;;;15.90;99.90;;;;;;5011875;28;20056;-67